sensor_id;sensor_type;location;lat;lon;timestamp;P1;durP1;ratioP1;P2;durP2;ratioP2
8831;SDS011;4452;50.756;4.472;2023-06-26T00:01:31;11.35;;;5.43;;
8831;SDS011;4452;50.756;4.472;2023-06-26T00:03:57;10.25;;;4.88;;
8831;SDS011;4452;50.756;4.472;2023-06-26T00:06:24;4.80;;;4.40;;
8831;SDS011;4452;50.756;4.472;2023-06-26T00:08:51;6.90;;;4.65;;
8831;SDS011;4452;50.756;4.472;2023-06-26T00:11:18;6.82;;;4.35;;
8831;SDS011;4452;50.756;4.472;2023-06-26T00:13:44;6.30;;;4.20;;
8831;SDS011;4452;50.756;4.472;2023-06-26T00:16:10;5.57;;;4.80;;
8831;SDS011;4452;50.756;4.472;2023-06-26T00:18:35;5.22;;;4.18;;
8831;SDS011;4452;50.756;4.472;2023-06-26T00:21:01;5.80;;;4.30;;
8831;SDS011;4452;50.756;4.472;2023-06-26T00:23:27;4.82;;;4.22;;
8831;SDS011;4452;50.756;4.472;2023-06-26T00:25:53;6.97;;;4.40;;
8831;SDS011;4452;50.756;4.472;2023-06-26T00:28:18;6.85;;;4.95;;
8831;SDS011;4452;50.756;4.472;2023-06-26T00:30:44;8.68;;;4.95;;
8831;SDS011;4452;50.756;4.472;2023-06-26T00:33:10;5.47;;;4.90;;
8831;SDS011;4452;50.756;4.472;2023-06-26T00:35:35;6.45;;;4.80;;
8831;SDS011;4452;50.756;4.472;2023-06-26T00:38:01;8.43;;;4.47;;
8831;SDS011;4452;50.756;4.472;2023-06-26T00:40:27;6.30;;;4.80;;
8831;SDS011;4452;50.756;4.472;2023-06-26T00:42:53;7.63;;;4.68;;
8831;SDS011;4452;50.756;4.472;2023-06-26T00:45:19;13.95;;;4.80;;
8831;SDS011;4452;50.756;4.472;2023-06-26T00:47:44;6.20;;;4.15;;
8831;SDS011;4452;50.756;4.472;2023-06-26T00:50:10;9.80;;;4.53;;
8831;SDS011;4452;50.756;4.472;2023-06-26T00:52:37;5.38;;;3.88;;
8831;SDS011;4452;50.756;4.472;2023-06-26T00:55:03;4.97;;;4.15;;
8831;SDS011;4452;50.756;4.472;2023-06-26T00:57:29;6.50;;;4.20;;
8831;SDS011;4452;50.756;4.472;2023-06-26T00:59:56;7.35;;;3.72;;
8831;SDS011;4452;50.756;4.472;2023-06-26T01:02:22;6.07;;;4.60;;
8831;SDS011;4452;50.756;4.472;2023-06-26T01:04:51;4.40;;;4.00;;
8831;SDS011;4452;50.756;4.472;2023-06-26T01:07:18;4.03;;;3.67;;
8831;SDS011;4452;50.756;4.472;2023-06-26T01:09:46;4.80;;;4.35;;
8831;SDS011;4452;50.756;4.472;2023-06-26T01:12:12;5.22;;;4.05;;
8831;SDS011;4452;50.756;4.472;2023-06-26T01:14:39;6.07;;;4.30;;
8831;SDS011;4452;50.756;4.472;2023-06-26T01:17:04;6.60;;;4.32;;
8831;SDS011;4452;50.756;4.472;2023-06-26T01:19:32;5.25;;;4.32;;
8831;SDS011;4452;50.756;4.472;2023-06-26T01:27:48;4.03;;;3.50;;
8831;SDS011;4452;50.756;4.472;2023-06-26T01:30:15;8.07;;;4.93;;
8831;SDS011;4452;50.756;4.472;2023-06-26T01:32:43;8.90;;;4.40;;
8831;SDS011;4452;50.756;4.472;2023-06-26T01:35:10;6.55;;;4.20;;
8831;SDS011;4452;50.756;4.472;2023-06-26T01:37:37;6.13;;;4.22;;
8831;SDS011;4452;50.756;4.472;2023-06-26T01:40:03;8.27;;;4.30;;
8831;SDS011;4452;50.756;4.472;2023-06-26T01:42:32;6.25;;;3.90;;
8831;SDS011;4452;50.756;4.472;2023-06-26T01:44:59;4.50;;;3.88;;
8831;SDS011;4452;50.756;4.472;2023-06-26T01:47:35;5.65;;;4.22;;
8831;SDS011;4452;50.756;4.472;2023-06-26T01:50:09;6.95;;;4.07;;
8831;SDS011;4452;50.756;4.472;2023-06-26T01:53:24;6.93;;;4.43;;
8831;SDS011;4452;50.756;4.472;2023-06-26T01:55:35;8.52;;;4.43;;
8831;SDS011;4452;50.756;4.472;2023-06-26T01:58:05;6.30;;;4.50;;
8831;SDS011;4452;50.756;4.472;2023-06-26T02:00:31;9.15;;;4.50;;
8831;SDS011;4452;50.756;4.472;2023-06-26T02:02:58;6.53;;;4.10;;
8831;SDS011;4452;50.756;4.472;2023-06-26T02:05:24;8.38;;;4.25;;
8831;SDS011;4452;50.756;4.472;2023-06-26T02:07:50;8.00;;;4.65;;
8831;SDS011;4452;50.756;4.472;2023-06-26T02:10:16;8.43;;;4.53;;
8831;SDS011;4452;50.756;4.472;2023-06-26T02:12:42;8.65;;;4.40;;
8831;SDS011;4452;50.756;4.472;2023-06-26T02:15:08;7.00;;;4.03;;
8831;SDS011;4452;50.756;4.472;2023-06-26T02:17:34;8.57;;;4.20;;
8831;SDS011;4452;50.756;4.472;2023-06-26T02:19:59;6.65;;;4.60;;
8831;SDS011;4452;50.756;4.472;2023-06-26T02:22:25;10.50;;;4.60;;
8831;SDS011;4452;50.756;4.472;2023-06-26T02:24:53;9.35;;;5.05;;
8831;SDS011;4452;50.756;4.472;2023-06-26T02:27:19;6.28;;;4.43;;
8831;SDS011;4452;50.756;4.472;2023-06-26T02:29:45;7.70;;;4.93;;
8831;SDS011;4452;50.756;4.472;2023-06-26T02:32:10;7.80;;;4.53;;
8831;SDS011;4452;50.756;4.472;2023-06-26T02:34:36;7.00;;;4.10;;
8831;SDS011;4452;50.756;4.472;2023-06-26T02:37:02;9.23;;;5.20;;
8831;SDS011;4452;50.756;4.472;2023-06-26T02:39:28;9.30;;;4.70;;
8831;SDS011;4452;50.756;4.472;2023-06-26T02:41:53;10.30;;;4.28;;
8831;SDS011;4452;50.756;4.472;2023-06-26T02:44:19;8.60;;;4.20;;
8831;SDS011;4452;50.756;4.472;2023-06-26T02:46:46;8.70;;;4.45;;
8831;SDS011;4452;50.756;4.472;2023-06-26T02:49:11;8.45;;;4.38;;
8831;SDS011;4452;50.756;4.472;2023-06-26T02:51:37;9.60;;;4.65;;
8831;SDS011;4452;50.756;4.472;2023-06-26T02:54:03;9.02;;;4.43;;
8831;SDS011;4452;50.756;4.472;2023-06-26T02:56:29;11.70;;;4.65;;
8831;SDS011;4452;50.756;4.472;2023-06-26T02:58:57;8.88;;;4.80;;
8831;SDS011;4452;50.756;4.472;2023-06-26T03:01:24;10.30;;;4.80;;
8831;SDS011;4452;50.756;4.472;2023-06-26T03:03:50;11.20;;;4.53;;
8831;SDS011;4452;50.756;4.472;2023-06-26T03:06:16;11.75;;;5.38;;
8831;SDS011;4452;50.756;4.472;2023-06-26T03:08:42;6.53;;;4.93;;
8831;SDS011;4452;50.756;4.472;2023-06-26T03:11:08;10.07;;;5.00;;
8831;SDS011;4452;50.756;4.472;2023-06-26T03:13:34;11.93;;;5.05;;
8831;SDS011;4452;50.756;4.472;2023-06-26T03:16:01;12.82;;;4.90;;
8831;SDS011;4452;50.756;4.472;2023-06-26T03:18:27;12.07;;;5.07;;
8831;SDS011;4452;50.756;4.472;2023-06-26T03:20:53;15.43;;;5.63;;
8831;SDS011;4452;50.756;4.472;2023-06-26T03:23:20;11.70;;;5.35;;
8831;SDS011;4452;50.756;4.472;2023-06-26T03:25:46;14.05;;;5.40;;
8831;SDS011;4452;50.756;4.472;2023-06-26T03:28:12;12.73;;;5.20;;
8831;SDS011;4452;50.756;4.472;2023-06-26T03:30:38;14.05;;;5.53;;
8831;SDS011;4452;50.756;4.472;2023-06-26T03:33:04;14.05;;;5.50;;
8831;SDS011;4452;50.756;4.472;2023-06-26T03:35:29;13.68;;;5.22;;
8831;SDS011;4452;50.756;4.472;2023-06-26T03:37:55;11.23;;;5.00;;
8831;SDS011;4452;50.756;4.472;2023-06-26T03:40:21;16.27;;;5.25;;
8831;SDS011;4452;50.756;4.472;2023-06-26T03:42:46;14.65;;;4.78;;
8831;SDS011;4452;50.756;4.472;2023-06-26T03:45:12;16.75;;;5.30;;
8831;SDS011;4452;50.756;4.472;2023-06-26T03:47:38;14.80;;;5.78;;
8831;SDS011;4452;50.756;4.472;2023-06-26T03:50:03;14.57;;;5.53;;
8831;SDS011;4452;50.756;4.472;2023-06-26T03:52:29;19.88;;;5.60;;
8831;SDS011;4452;50.756;4.472;2023-06-26T03:54:56;18.02;;;5.28;;
8831;SDS011;4452;50.756;4.472;2023-06-26T03:57:22;20.45;;;6.10;;
8831;SDS011;4452;50.756;4.472;2023-06-26T03:59:48;20.05;;;6.22;;
8831;SDS011;4452;50.756;4.472;2023-06-26T04:02:14;15.77;;;5.90;;
8831;SDS011;4452;50.756;4.472;2023-06-26T04:04:40;9.40;;;4.93;;
8831;SDS011;4452;50.756;4.472;2023-06-26T04:07:05;15.93;;;6.35;;
8831;SDS011;4452;50.756;4.472;2023-06-26T04:09:31;19.50;;;6.15;;
8831;SDS011;4452;50.756;4.472;2023-06-26T04:11:57;14.68;;;5.47;;
8831;SDS011;4452;50.756;4.472;2023-06-26T04:14:22;21.60;;;5.88;;
8831;SDS011;4452;50.756;4.472;2023-06-26T04:16:48;18.65;;;5.38;;
8831;SDS011;4452;50.756;4.472;2023-06-26T04:19:14;20.25;;;5.63;;
8831;SDS011;4452;50.756;4.472;2023-06-26T04:21:39;15.23;;;5.20;;
8831;SDS011;4452;50.756;4.472;2023-06-26T04:24:05;12.32;;;4.70;;
8831;SDS011;4452;50.756;4.472;2023-06-26T04:26:31;16.85;;;4.75;;
8831;SDS011;4452;50.756;4.472;2023-06-26T04:28:57;16.17;;;4.90;;
8831;SDS011;4452;50.756;4.472;2023-06-26T04:31:23;13.85;;;4.75;;
8831;SDS011;4452;50.756;4.472;2023-06-26T04:33:48;18.80;;;5.15;;
8831;SDS011;4452;50.756;4.472;2023-06-26T04:36:16;16.48;;;5.13;;
8831;SDS011;4452;50.756;4.472;2023-06-26T04:38:43;15.05;;;5.60;;
8831;SDS011;4452;50.756;4.472;2023-06-26T04:41:08;15.27;;;5.55;;
8831;SDS011;4452;50.756;4.472;2023-06-26T04:43:34;20.67;;;5.10;;
8831;SDS011;4452;50.756;4.472;2023-06-26T04:46:02;13.15;;;5.13;;
8831;SDS011;4452;50.756;4.472;2023-06-26T04:48:28;16.90;;;5.00;;
8831;SDS011;4452;50.756;4.472;2023-06-26T04:50:56;16.58;;;4.60;;
8831;SDS011;4452;50.756;4.472;2023-06-26T04:53:22;15.93;;;4.75;;
8831;SDS011;4452;50.756;4.472;2023-06-26T04:55:51;12.68;;;4.55;;
8831;SDS011;4452;50.756;4.472;2023-06-26T04:58:18;13.35;;;5.57;;
8831;SDS011;4452;50.756;4.472;2023-06-26T05:00:44;15.48;;;4.18;;
8831;SDS011;4452;50.756;4.472;2023-06-26T05:03:13;14.85;;;4.57;;
8831;SDS011;4452;50.756;4.472;2023-06-26T05:05:42;12.30;;;4.10;;
8831;SDS011;4452;50.756;4.472;2023-06-26T05:08:20;17.65;;;4.45;;
8831;SDS011;4452;50.756;4.472;2023-06-26T05:10:46;12.85;;;4.25;;
8831;SDS011;4452;50.756;4.472;2023-06-26T05:13:13;17.05;;;4.43;;
8831;SDS011;4452;50.756;4.472;2023-06-26T05:15:42;18.77;;;5.13;;
8831;SDS011;4452;50.756;4.472;2023-06-26T05:18:08;17.92;;;4.25;;
8831;SDS011;4452;50.756;4.472;2023-06-26T05:20:35;17.02;;;4.65;;
8831;SDS011;4452;50.756;4.472;2023-06-26T05:23:01;15.02;;;4.30;;
8831;SDS011;4452;50.756;4.472;2023-06-26T05:25:28;12.40;;;4.20;;
8831;SDS011;4452;50.756;4.472;2023-06-26T05:27:55;15.35;;;3.55;;
8831;SDS011;4452;50.756;4.472;2023-06-26T05:30:22;12.52;;;3.95;;
8831;SDS011;4452;50.756;4.472;2023-06-26T05:32:50;19.95;;;5.10;;
8831;SDS011;4452;50.756;4.472;2023-06-26T05:35:17;19.98;;;5.10;;
8831;SDS011;4452;50.756;4.472;2023-06-26T05:37:45;14.63;;;4.28;;
8831;SDS011;4452;50.756;4.472;2023-06-26T05:40:13;16.75;;;4.30;;
8831;SDS011;4452;50.756;4.472;2023-06-26T05:42:40;11.65;;;3.30;;
8831;SDS011;4452;50.756;4.472;2023-06-26T05:45:05;20.33;;;4.55;;
8831;SDS011;4452;50.756;4.472;2023-06-26T05:47:31;22.70;;;4.45;;
8831;SDS011;4452;50.756;4.472;2023-06-26T05:49:57;14.13;;;3.65;;
8831;SDS011;4452;50.756;4.472;2023-06-26T05:52:23;9.55;;;3.63;;
8831;SDS011;4452;50.756;4.472;2023-06-26T05:54:49;15.98;;;3.50;;
8831;SDS011;4452;50.756;4.472;2023-06-26T05:57:15;14.82;;;4.05;;
8831;SDS011;4452;50.756;4.472;2023-06-26T05:59:41;12.95;;;3.60;;
8831;SDS011;4452;50.756;4.472;2023-06-26T06:02:08;12.50;;;4.00;;
8831;SDS011;4452;50.756;4.472;2023-06-26T06:04:34;18.58;;;3.58;;
8831;SDS011;4452;50.756;4.472;2023-06-26T06:07:00;15.23;;;3.35;;
8831;SDS011;4452;50.756;4.472;2023-06-26T06:09:26;13.13;;;4.00;;
8831;SDS011;4452;50.756;4.472;2023-06-26T06:11:51;14.05;;;3.80;;
8831;SDS011;4452;50.756;4.472;2023-06-26T06:14:17;10.23;;;3.33;;
8831;SDS011;4452;50.756;4.472;2023-06-26T06:16:43;9.70;;;3.50;;
8831;SDS011;4452;50.756;4.472;2023-06-26T06:19:08;12.45;;;3.30;;
8831;SDS011;4452;50.756;4.472;2023-06-26T06:21:38;10.35;;;3.08;;
8831;SDS011;4452;50.756;4.472;2023-06-26T06:24:04;11.73;;;3.88;;
8831;SDS011;4452;50.756;4.472;2023-06-26T06:26:31;13.07;;;4.07;;
8831;SDS011;4452;50.756;4.472;2023-06-26T06:28:57;13.43;;;3.67;;
8831;SDS011;4452;50.756;4.472;2023-06-26T06:31:23;8.82;;;3.15;;
8831;SDS011;4452;50.756;4.472;2023-06-26T06:33:49;11.57;;;3.45;;
8831;SDS011;4452;50.756;4.472;2023-06-26T06:36:14;10.23;;;3.60;;
8831;SDS011;4452;50.756;4.472;2023-06-26T06:38:43;12.57;;;3.28;;
8831;SDS011;4452;50.756;4.472;2023-06-26T06:41:09;8.95;;;3.05;;
8831;SDS011;4452;50.756;4.472;2023-06-26T06:43:35;6.60;;;3.00;;
8831;SDS011;4452;50.756;4.472;2023-06-26T06:46:01;10.30;;;2.80;;
8831;SDS011;4452;50.756;4.472;2023-06-26T06:48:27;8.27;;;2.83;;
8831;SDS011;4452;50.756;4.472;2023-06-26T06:50:53;8.30;;;2.95;;
8831;SDS011;4452;50.756;4.472;2023-06-26T06:53:18;7.68;;;2.60;;
8831;SDS011;4452;50.756;4.472;2023-06-26T06:55:48;9.45;;;2.97;;
8831;SDS011;4452;50.756;4.472;2023-06-26T06:58:14;7.10;;;2.50;;
8831;SDS011;4452;50.756;4.472;2023-06-26T07:00:41;8.88;;;3.38;;
8831;SDS011;4452;50.756;4.472;2023-06-26T07:03:08;10.00;;;2.58;;
8831;SDS011;4452;50.756;4.472;2023-06-26T07:05:33;11.63;;;2.97;;
8831;SDS011;4452;50.756;4.472;2023-06-26T07:07:59;9.18;;;2.55;;
8831;SDS011;4452;50.756;4.472;2023-06-26T07:10:24;8.13;;;3.00;;
8831;SDS011;4452;50.756;4.472;2023-06-26T07:12:50;9.75;;;2.70;;
8831;SDS011;4452;50.756;4.472;2023-06-26T07:15:16;7.13;;;2.85;;
8831;SDS011;4452;50.756;4.472;2023-06-26T07:17:42;7.53;;;2.72;;
8831;SDS011;4452;50.756;4.472;2023-06-26T07:20:07;9.50;;;2.85;;
8831;SDS011;4452;50.756;4.472;2023-06-26T07:22:35;6.75;;;2.65;;
8831;SDS011;4452;50.756;4.472;2023-06-26T07:25:01;12.23;;;3.50;;
8831;SDS011;4452;50.756;4.472;2023-06-26T07:27:29;12.82;;;2.88;;
8831;SDS011;4452;50.756;4.472;2023-06-26T07:29:54;6.35;;;2.65;;
8831;SDS011;4452;50.756;4.472;2023-06-26T07:32:20;11.50;;;2.55;;
8831;SDS011;4452;50.756;4.472;2023-06-26T07:34:46;12.35;;;2.83;;
8831;SDS011;4452;50.756;4.472;2023-06-26T07:37:11;5.70;;;2.40;;
8831;SDS011;4452;50.756;4.472;2023-06-26T07:39:37;8.38;;;2.60;;
8831;SDS011;4452;50.756;4.472;2023-06-26T07:42:03;8.10;;;2.80;;
8831;SDS011;4452;50.756;4.472;2023-06-26T07:44:28;7.60;;;2.45;;
8831;SDS011;4452;50.756;4.472;2023-06-26T07:46:55;6.22;;;2.70;;
8831;SDS011;4452;50.756;4.472;2023-06-26T07:49:22;12.93;;;2.80;;
8831;SDS011;4452;50.756;4.472;2023-06-26T07:51:49;5.32;;;2.50;;
8831;SDS011;4452;50.756;4.472;2023-06-26T07:54:17;6.80;;;2.72;;
8831;SDS011;4452;50.756;4.472;2023-06-26T07:57:02;5.95;;;2.40;;
8831;SDS011;4452;50.756;4.472;2023-06-26T07:59:35;6.15;;;2.40;;
8831;SDS011;4452;50.756;4.472;2023-06-26T08:02:02;8.52;;;2.55;;
8831;SDS011;4452;50.756;4.472;2023-06-26T08:04:28;8.60;;;3.13;;
8831;SDS011;4452;50.756;4.472;2023-06-26T08:06:57;5.57;;;2.72;;
8831;SDS011;4452;50.756;4.472;2023-06-26T08:09:24;10.77;;;2.60;;
8831;SDS011;4452;50.756;4.472;2023-06-26T08:11:52;3.80;;;2.22;;
8831;SDS011;4452;50.756;4.472;2023-06-26T08:14:18;5.82;;;2.60;;
8831;SDS011;4452;50.756;4.472;2023-06-26T08:16:44;4.55;;;2.25;;
8831;SDS011;4452;50.756;4.472;2023-06-26T08:19:11;7.75;;;2.33;;
8831;SDS011;4452;50.756;4.472;2023-06-26T08:21:37;6.38;;;2.92;;
8831;SDS011;4452;50.756;4.472;2023-06-26T08:24:04;5.07;;;2.70;;
8831;SDS011;4452;50.756;4.472;2023-06-26T08:26:30;6.35;;;2.67;;
8831;SDS011;4452;50.756;4.472;2023-06-26T08:28:56;11.73;;;2.85;;
8831;SDS011;4452;50.756;4.472;2023-06-26T08:31:21;6.90;;;2.40;;
8831;SDS011;4452;50.756;4.472;2023-06-26T08:33:47;4.95;;;2.33;;
8831;SDS011;4452;50.756;4.472;2023-06-26T08:36:13;6.25;;;2.50;;
8831;SDS011;4452;50.756;4.472;2023-06-26T08:38:39;6.28;;;2.40;;
8831;SDS011;4452;50.756;4.472;2023-06-26T08:41:07;7.15;;;2.40;;
8831;SDS011;4452;50.756;4.472;2023-06-26T08:43:35;5.63;;;2.30;;
8831;SDS011;4452;50.756;4.472;2023-06-26T08:46:01;3.58;;;2.08;;
8831;SDS011;4452;50.756;4.472;2023-06-26T08:48:35;7.82;;;2.40;;
8831;SDS011;4452;50.756;4.472;2023-06-26T08:51:11;6.10;;;2.53;;
8831;SDS011;4452;50.756;4.472;2023-06-26T08:53:43;5.22;;;2.20;;
8831;SDS011;4452;50.756;4.472;2023-06-26T08:56:20;4.60;;;2.38;;
8831;SDS011;4452;50.756;4.472;2023-06-26T08:58:49;3.53;;;2.25;;
8831;SDS011;4452;50.756;4.472;2023-06-26T09:01:14;11.52;;;2.58;;
8831;SDS011;4452;50.756;4.472;2023-06-26T09:03:40;2.78;;;2.30;;
8831;SDS011;4452;50.756;4.472;2023-06-26T09:06:07;4.00;;;2.15;;
8831;SDS011;4452;50.756;4.472;2023-06-26T09:08:32;5.95;;;2.40;;
8831;SDS011;4452;50.756;4.472;2023-06-26T09:10:59;6.68;;;2.60;;
8831;SDS011;4452;50.756;4.472;2023-06-26T09:13:25;9.65;;;2.30;;
8831;SDS011;4452;50.756;4.472;2023-06-26T09:15:53;3.60;;;2.33;;
8831;SDS011;4452;50.756;4.472;2023-06-26T09:18:20;10.27;;;2.63;;
8831;SDS011;4452;50.756;4.472;2023-06-26T09:20:47;7.18;;;2.30;;
8831;SDS011;4452;50.756;4.472;2023-06-26T09:23:13;4.30;;;2.50;;
8831;SDS011;4452;50.756;4.472;2023-06-26T09:25:39;4.07;;;2.38;;
8831;SDS011;4452;50.756;4.472;2023-06-26T09:28:05;5.82;;;2.30;;
8831;SDS011;4452;50.756;4.472;2023-06-26T09:30:32;4.72;;;2.28;;
8831;SDS011;4452;50.756;4.472;2023-06-26T09:33:11;10.00;;;2.53;;
8831;SDS011;4452;50.756;4.472;2023-06-26T09:35:45;3.28;;;2.30;;
8831;SDS011;4452;50.756;4.472;2023-06-26T09:38:12;3.20;;;2.22;;
8831;SDS011;4452;50.756;4.472;2023-06-26T09:40:39;8.30;;;2.10;;
8831;SDS011;4452;50.756;4.472;2023-06-26T09:43:05;5.82;;;2.40;;
8831;SDS011;4452;50.756;4.472;2023-06-26T09:45:34;3.85;;;2.38;;
8831;SDS011;4452;50.756;4.472;2023-06-26T09:48:04;4.90;;;2.35;;
8831;SDS011;4452;50.756;4.472;2023-06-26T09:50:32;3.33;;;2.30;;
8831;SDS011;4452;50.756;4.472;2023-06-26T09:53:03;4.88;;;2.50;;
8831;SDS011;4452;50.756;4.472;2023-06-26T09:55:36;3.95;;;2.53;;
8831;SDS011;4452;50.756;4.472;2023-06-26T09:58:03;6.70;;;3.30;;
8831;SDS011;4452;50.756;4.472;2023-06-26T10:00:44;9.02;;;2.83;;
8831;SDS011;4452;50.756;4.472;2023-06-26T10:03:11;5.38;;;2.75;;
8831;SDS011;4452;50.756;4.472;2023-06-26T10:05:40;9.15;;;2.78;;
8831;SDS011;4452;50.756;4.472;2023-06-26T10:08:06;10.02;;;2.70;;
8831;SDS011;4452;50.756;4.472;2023-06-26T10:10:36;4.07;;;2.50;;
8831;SDS011;4452;50.756;4.472;2023-06-26T10:13:05;2.90;;;2.38;;
8831;SDS011;4452;50.756;4.472;2023-06-26T10:15:37;9.07;;;2.50;;
8831;SDS011;4452;50.756;4.472;2023-06-26T10:18:04;5.28;;;2.60;;
8831;SDS011;4452;50.756;4.472;2023-06-26T10:20:30;4.78;;;2.95;;
8831;SDS011;4452;50.756;4.472;2023-06-26T10:22:57;8.20;;;2.83;;
8831;SDS011;4452;50.756;4.472;2023-06-26T10:25:27;2.97;;;2.33;;
8831;SDS011;4452;50.756;4.472;2023-06-26T10:27:55;4.25;;;2.40;;
8831;SDS011;4452;50.756;4.472;2023-06-26T10:30:25;5.20;;;2.63;;
8831;SDS011;4452;50.756;4.472;2023-06-26T10:32:53;7.00;;;2.55;;
8831;SDS011;4452;50.756;4.472;2023-06-26T10:35:20;3.42;;;2.47;;
8831;SDS011;4452;50.756;4.472;2023-06-26T10:37:50;8.27;;;2.50;;
8831;SDS011;4452;50.756;4.472;2023-06-26T10:40:27;4.97;;;3.00;;
8831;SDS011;4452;50.756;4.472;2023-06-26T10:43:06;4.03;;;2.13;;
8831;SDS011;4452;50.756;4.472;2023-06-26T10:45:33;2.60;;;2.40;;
8831;SDS011;4452;50.756;4.472;2023-06-26T10:48:00;6.70;;;2.75;;
8831;SDS011;4452;50.756;4.472;2023-06-26T10:50:33;6.28;;;2.67;;
8831;SDS011;4452;50.756;4.472;2023-06-26T10:53:09;6.82;;;2.50;;
8831;SDS011;4452;50.756;4.472;2023-06-26T11:01:25;3.30;;;2.60;;
8831;SDS011;4452;50.756;4.472;2023-06-26T11:04:07;3.67;;;2.50;;
8831;SDS011;4452;50.756;4.472;2023-06-26T11:06:33;4.03;;;2.58;;
8831;SDS011;4452;50.756;4.472;2023-06-26T11:14:20;3.42;;;2.67;;
8831;SDS011;4452;50.756;4.472;2023-06-26T11:16:48;2.70;;;2.25;;
8831;SDS011;4452;50.756;4.472;2023-06-26T11:19:16;3.78;;;2.50;;
8831;SDS011;4452;50.756;4.472;2023-06-26T11:21:43;3.72;;;2.40;;
8831;SDS011;4452;50.756;4.472;2023-06-26T11:24:09;11.35;;;3.25;;
8831;SDS011;4452;50.756;4.472;2023-06-26T11:26:39;2.50;;;2.30;;
8831;SDS011;4452;50.756;4.472;2023-06-26T11:29:06;5.95;;;1.90;;
8831;SDS011;4452;50.756;4.472;2023-06-26T11:31:33;9.68;;;2.53;;
8831;SDS011;4452;50.756;4.472;2023-06-26T11:34:04;3.00;;;2.40;;
8831;SDS011;4452;50.756;4.472;2023-06-26T11:36:35;4.25;;;2.40;;
8831;SDS011;4452;50.756;4.472;2023-06-26T11:39:03;3.22;;;2.22;;
8831;SDS011;4452;50.756;4.472;2023-06-26T11:41:31;4.97;;;2.20;;
8831;SDS011;4452;50.756;4.472;2023-06-26T11:44:02;5.90;;;2.60;;
8831;SDS011;4452;50.756;4.472;2023-06-26T11:46:27;4.13;;;2.70;;
8831;SDS011;4452;50.756;4.472;2023-06-26T11:48:54;6.55;;;2.60;;
8831;SDS011;4452;50.756;4.472;2023-06-26T11:51:20;6.35;;;2.30;;
8831;SDS011;4452;50.756;4.472;2023-06-26T11:53:46;6.07;;;2.42;;
8831;SDS011;4452;50.756;4.472;2023-06-26T11:56:13;8.50;;;2.65;;
8831;SDS011;4452;50.756;4.472;2023-06-26T11:59:00;2.40;;;2.20;;
8831;SDS011;4452;50.756;4.472;2023-06-26T12:01:34;4.00;;;2.58;;
8831;SDS011;4452;50.756;4.472;2023-06-26T12:04:05;4.10;;;2.45;;
8831;SDS011;4452;50.756;4.472;2023-06-26T12:06:33;2.65;;;2.17;;
8831;SDS011;4452;50.756;4.472;2023-06-26T12:09:04;4.00;;;2.25;;
8831;SDS011;4452;50.756;4.472;2023-06-26T12:11:32;8.45;;;2.30;;
8831;SDS011;4452;50.756;4.472;2023-06-26T12:13:59;3.97;;;2.45;;
8831;SDS011;4452;50.756;4.472;2023-06-26T12:16:29;4.43;;;2.10;;
8831;SDS011;4452;50.756;4.472;2023-06-26T12:18:59;5.43;;;2.60;;
8831;SDS011;4452;50.756;4.472;2023-06-26T12:21:43;5.78;;;2.53;;
8831;SDS011;4452;50.756;4.472;2023-06-26T12:24:15;5.60;;;2.40;;
8831;SDS011;4452;50.756;4.472;2023-06-26T12:26:43;7.65;;;2.50;;
8831;SDS011;4452;50.756;4.472;2023-06-26T12:29:10;8.35;;;2.55;;
8831;SDS011;4452;50.756;4.472;2023-06-26T12:31:44;4.03;;;2.35;;
8831;SDS011;4452;50.756;4.472;2023-06-26T12:34:11;6.43;;;2.50;;
8831;SDS011;4452;50.756;4.472;2023-06-26T12:36:43;2.70;;;2.40;;
8831;SDS011;4452;50.756;4.472;2023-06-26T12:39:22;8.05;;;2.50;;
8831;SDS011;4452;50.756;4.472;2023-06-26T12:41:48;3.92;;;2.50;;
8831;SDS011;4452;50.756;4.472;2023-06-26T12:46:50;6.25;;;2.65;;
8831;SDS011;4452;50.756;4.472;2023-06-26T12:49:20;2.72;;;2.40;;
8831;SDS011;4452;50.756;4.472;2023-06-26T12:51:53;2.97;;;2.40;;
8831;SDS011;4452;50.756;4.472;2023-06-26T12:54:19;4.25;;;2.40;;
8831;SDS011;4452;50.756;4.472;2023-06-26T12:56:45;7.30;;;2.30;;
8831;SDS011;4452;50.756;4.472;2023-06-26T12:59:10;5.85;;;2.80;;
8831;SDS011;4452;50.756;4.472;2023-06-26T13:01:36;8.38;;;2.65;;
8831;SDS011;4452;50.756;4.472;2023-06-26T13:04:02;3.80;;;2.10;;
8831;SDS011;4452;50.756;4.472;2023-06-26T13:06:28;3.40;;;2.40;;
8831;SDS011;4452;50.756;4.472;2023-06-26T13:08:54;5.82;;;2.38;;
8831;SDS011;4452;50.756;4.472;2023-06-26T13:11:20;4.53;;;2.90;;
8831;SDS011;4452;50.756;4.472;2023-06-26T13:13:46;4.03;;;2.45;;
8831;SDS011;4452;50.756;4.472;2023-06-26T13:16:12;5.85;;;2.60;;
8831;SDS011;4452;50.756;4.472;2023-06-26T13:18:38;6.15;;;2.78;;
8831;SDS011;4452;50.756;4.472;2023-06-26T13:21:04;8.95;;;2.55;;
8831;SDS011;4452;50.756;4.472;2023-06-26T13:23:29;2.97;;;2.40;;
8831;SDS011;4452;50.756;4.472;2023-06-26T13:25:55;5.55;;;2.38;;
8831;SDS011;4452;50.756;4.472;2023-06-26T13:28:20;4.97;;;2.58;;
8831;SDS011;4452;50.756;4.472;2023-06-26T13:30:46;2.53;;;2.33;;
8831;SDS011;4452;50.756;4.472;2023-06-26T13:33:12;6.22;;;2.50;;
8831;SDS011;4452;50.756;4.472;2023-06-26T13:35:37;7.35;;;2.70;;
8831;SDS011;4452;50.756;4.472;2023-06-26T13:38:03;4.95;;;2.35;;
8831;SDS011;4452;50.756;4.472;2023-06-26T13:40:28;6.88;;;2.83;;
8831;SDS011;4452;50.756;4.472;2023-06-26T13:42:54;9.13;;;2.90;;
8831;SDS011;4452;50.756;4.472;2023-06-26T13:45:19;4.80;;;2.70;;
8831;SDS011;4452;50.756;4.472;2023-06-26T13:47:45;5.57;;;2.72;;
8831;SDS011;4452;50.756;4.472;2023-06-26T13:50:11;6.65;;;2.50;;
8831;SDS011;4452;50.756;4.472;2023-06-26T13:52:36;5.60;;;2.35;;
8831;SDS011;4452;50.756;4.472;2023-06-26T13:55:02;8.93;;;2.90;;
8831;SDS011;4452;50.756;4.472;2023-06-26T13:57:29;7.07;;;2.78;;
8831;SDS011;4452;50.756;4.472;2023-06-26T13:59:55;6.47;;;2.47;;
8831;SDS011;4452;50.756;4.472;2023-06-26T14:02:21;4.57;;;2.50;;
8831;SDS011;4452;50.756;4.472;2023-06-26T14:04:47;3.35;;;2.40;;
8831;SDS011;4452;50.756;4.472;2023-06-26T14:07:13;6.80;;;2.92;;
8831;SDS011;4452;50.756;4.472;2023-06-26T14:09:39;6.13;;;2.60;;
8831;SDS011;4452;50.756;4.472;2023-06-26T14:12:05;3.88;;;2.50;;
8831;SDS011;4452;50.756;4.472;2023-06-26T14:14:32;7.65;;;2.70;;
8831;SDS011;4452;50.756;4.472;2023-06-26T14:16:57;11.40;;;2.83;;
8831;SDS011;4452;50.756;4.472;2023-06-26T14:19:24;4.53;;;2.80;;
8831;SDS011;4452;50.756;4.472;2023-06-26T14:21:51;7.15;;;2.65;;
8831;SDS011;4452;50.756;4.472;2023-06-26T14:24:17;2.72;;;2.47;;
8831;SDS011;4452;50.756;4.472;2023-06-26T14:26:42;5.57;;;3.15;;
8831;SDS011;4452;50.756;4.472;2023-06-26T14:29:08;3.00;;;2.63;;
8831;SDS011;4452;50.756;4.472;2023-06-26T14:31:34;6.00;;;2.53;;
8831;SDS011;4452;50.756;4.472;2023-06-26T14:34:00;7.88;;;2.58;;
8831;SDS011;4452;50.756;4.472;2023-06-26T14:36:27;6.57;;;2.53;;
8831;SDS011;4452;50.756;4.472;2023-06-26T14:38:56;3.65;;;2.40;;
8831;SDS011;4452;50.756;4.472;2023-06-26T14:41:21;4.13;;;2.30;;
8831;SDS011;4452;50.756;4.472;2023-06-26T14:43:47;4.80;;;2.72;;
8831;SDS011;4452;50.756;4.472;2023-06-26T14:46:13;6.70;;;2.50;;
8831;SDS011;4452;50.756;4.472;2023-06-26T14:48:39;4.05;;;2.33;;
8831;SDS011;4452;50.756;4.472;2023-06-26T14:51:04;5.53;;;2.58;;
8831;SDS011;4452;50.756;4.472;2023-06-26T14:53:30;4.80;;;2.60;;
8831;SDS011;4452;50.756;4.472;2023-06-26T14:55:56;2.65;;;2.30;;
8831;SDS011;4452;50.756;4.472;2023-06-26T14:58:21;5.75;;;2.67;;
8831;SDS011;4452;50.756;4.472;2023-06-26T15:00:47;3.25;;;2.45;;
8831;SDS011;4452;50.756;4.472;2023-06-26T15:03:13;2.65;;;2.47;;
8831;SDS011;4452;50.756;4.472;2023-06-26T15:05:39;5.65;;;2.40;;
8831;SDS011;4452;50.756;4.472;2023-06-26T15:08:05;3.33;;;2.33;;
8831;SDS011;4452;50.756;4.472;2023-06-26T15:10:30;4.22;;;2.28;;
8831;SDS011;4452;50.756;4.472;2023-06-26T15:12:56;2.70;;;2.10;;
8831;SDS011;4452;50.756;4.472;2023-06-26T15:15:21;4.25;;;2.60;;
8831;SDS011;4452;50.756;4.472;2023-06-26T15:17:49;4.50;;;2.53;;
8831;SDS011;4452;50.756;4.472;2023-06-26T15:20:14;3.75;;;2.38;;
8831;SDS011;4452;50.756;4.472;2023-06-26T15:22:40;2.40;;;2.20;;
8831;SDS011;4452;50.756;4.472;2023-06-26T15:25:06;3.58;;;2.13;;
8831;SDS011;4452;50.756;4.472;2023-06-26T15:27:32;4.82;;;2.25;;
8831;SDS011;4452;50.756;4.472;2023-06-26T15:29:58;3.42;;;2.22;;
8831;SDS011;4452;50.756;4.472;2023-06-26T15:32:23;4.30;;;2.67;;